Hauptseite
METAR-TAF:

METAR-TAF

Flughäfen :

Flughafen Metz-Nancy-Lothringen

Metz-Nancy-Lorraine, Frankreich

Breite: 48-59N, Länge: 006-15E, Höhe: 264 m

Beobachtung

Neuester Wetterbericht von vor 36 Minuten, um 03:30 UTC
Wind 3 kt aus Nord/Nordost
Temperatur 10°C
Luftfeuchtigkeit 82%
Luftdruck 1017 hPa
Sichtweite 10 km oder mehr
keine Wolken unter 1500 m und keine Kumulonimbus oder Gewitterwolken

METAR: LFJL 160330Z AUTO 03003KT CAVOK 10/07 Q1017 NOSIG

Zeit: 06:06 (04:06 UTC)

Prognose

Neuester Wetterbericht von vor 5 Stunden und 6 Minuten, um 23:00 UTC
Gültige Prognose vom 16 um 00 UTC bis 16 um 24 UTC
Wind 4 kt aus Ost/Nordost
Sichtweite 10 km oder mehr
keine Wolken unter 1500 m und keine Kumulonimbus oder Gewitterwolken

TAF: LFJL 152300Z 1600/1624 07004KT CAVOK

Wetterbeobachtungen und Prognosen von mehr als 4000 Flughäfen (METAR und TAF Bericht).

Die verfügbaren Stationen werden durch gelbe und rote Markierungen auf der Karte dargestellt.

Führen Sie die Maus auf sie, um den Namen der Station zu sehen.

Darauf klicken, um die Beobachtung von Wetterbeobachtungen und Prognosen zu sehen.

Um die Karte zu ändern : klicken Sie auf den grünen Tasten mit einem schwarzen Kreuz Zum Vergrößern, auf den grünen Button mit einem Gedankenstrich zu verkleinern, oder auf die grünen Pfeile für benachbarte Karten.


METAR-TAF: